sensor_id;sensor_type;location;lat;lon;timestamp;temperature;humidity
3660;DHT22;1846;51.482;7.224;2023-06-22T00:01:14;23.20;1.00
3660;DHT22;1846;51.482;7.224;2023-06-22T00:03:41;23.20;1.00
3660;DHT22;1846;51.482;7.224;2023-06-22T00:06:08;23.10;1.00
3660;DHT22;1846;51.482;7.224;2023-06-22T00:08:34;23.10;1.00
3660;DHT22;1846;51.482;7.224;2023-06-22T00:11:01;23.00;1.00
3660;DHT22;1846;51.482;7.224;2023-06-22T00:13:28;23.00;1.00
3660;DHT22;1846;51.482;7.224;2023-06-22T00:15:56;23.00;1.00
3660;DHT22;1846;51.482;7.224;2023-06-22T00:18:23;22.90;1.00
3660;DHT22;1846;51.482;7.224;2023-06-22T00:20:54;22.80;1.00
3660;DHT22;1846;51.482;7.224;2023-06-22T00:23:23;22.80;1.00
3660;DHT22;1846;51.482;7.224;2023-06-22T00:25:50;22.80;1.00
3660;DHT22;1846;51.482;7.224;2023-06-22T00:28:17;22.80;1.00
3660;DHT22;1846;51.482;7.224;2023-06-22T00:30:44;22.70;1.00
3660;DHT22;1846;51.482;7.224;2023-06-22T00:33:12;22.80;1.00
3660;DHT22;1846;51.482;7.224;2023-06-22T00:35:39;22.80;1.00
3660;DHT22;1846;51.482;7.224;2023-06-22T00:38:07;22.70;1.00
3660;DHT22;1846;51.482;7.224;2023-06-22T00:40:34;22.60;1.00
3660;DHT22;1846;51.482;7.224;2023-06-22T00:43:01;22.60;1.00
3660;DHT22;1846;51.482;7.224;2023-06-22T00:45:28;22.60;1.00
3660;DHT22;1846;51.482;7.224;2023-06-22T00:47:57;22.60;1.00
3660;DHT22;1846;51.482;7.224;2023-06-22T00:50:27;22.60;1.00
3660;DHT22;1846;51.482;7.224;2023-06-22T00:53:00;22.70;2.10
3660;DHT22;1846;51.482;7.224;2023-06-22T00:55:29;22.60;2.70
3660;DHT22;1846;51.482;7.224;2023-06-22T00:57:56;22.60;3.40
3660;DHT22;1846;51.482;7.224;2023-06-22T01:00:24;22.70;2.40
3660;DHT22;1846;51.482;7.224;2023-06-22T01:02:52;22.70;4.00
3660;DHT22;1846;51.482;7.224;2023-06-22T01:05:19;22.70;3.40
3660;DHT22;1846;51.482;7.224;2023-06-22T01:07:59;22.60;5.30
3660;DHT22;1846;51.482;7.224;2023-06-22T01:10:33;22.60;7.70
3660;DHT22;1846;51.482;7.224;2023-06-22T01:13:08;22.60;8.40
3660;DHT22;1846;51.482;7.224;2023-06-22T01:15:39;22.50;9.60
3660;DHT22;1846;51.482;7.224;2023-06-22T01:18:08;22.50;10.30
3660;DHT22;1846;51.482;7.224;2023-06-22T01:20:36;22.50;12.00
3660;DHT22;1846;51.482;7.224;2023-06-22T01:23:10;22.40;12.90
3660;DHT22;1846;51.482;7.224;2023-06-22T01:25:47;22.40;16.10
3660;DHT22;1846;51.482;7.224;2023-06-22T01:28:33;22.40;17.40
3660;DHT22;1846;51.482;7.224;2023-06-22T01:31:01;22.40;17.40
3660;DHT22;1846;51.482;7.224;2023-06-22T01:33:33;22.40;17.30
3660;DHT22;1846;51.482;7.224;2023-06-22T01:36:01;22.40;17.30
3660;DHT22;1846;51.482;7.224;2023-06-22T01:38:29;22.40;17.50
3660;DHT22;1846;51.482;7.224;2023-06-22T01:40:57;22.40;20.70
3660;DHT22;1846;51.482;7.224;2023-06-22T01:43:26;22.30;24.00
3660;DHT22;1846;51.482;7.224;2023-06-22T01:45:54;22.30;26.10
3660;DHT22;1846;51.482;7.224;2023-06-22T01:48:22;22.30;25.40
3660;DHT22;1846;51.482;7.224;2023-06-22T01:50:51;22.30;28.30
3660;DHT22;1846;51.482;7.224;2023-06-22T01:53:20;22.30;30.90
3660;DHT22;1846;51.482;7.224;2023-06-22T01:55:47;22.30;34.40
3660;DHT22;1846;51.482;7.224;2023-06-22T01:58:14;22.30;31.80
3660;DHT22;1846;51.482;7.224;2023-06-22T02:00:46;22.20;34.50
3660;DHT22;1846;51.482;7.224;2023-06-22T02:03:19;22.30;34.60
3660;DHT22;1846;51.482;7.224;2023-06-22T02:05:50;22.30;28.70
3660;DHT22;1846;51.482;7.224;2023-06-22T02:08:21;22.30;29.90
3660;DHT22;1846;51.482;7.224;2023-06-22T02:10:49;22.30;32.80
3660;DHT22;1846;51.482;7.224;2023-06-22T02:13:17;22.30;33.00
3660;DHT22;1846;51.482;7.224;2023-06-22T02:15:45;22.30;34.50
3660;DHT22;1846;51.482;7.224;2023-06-22T02:18:13;22.30;34.40
3660;DHT22;1846;51.482;7.224;2023-06-22T02:20:41;22.30;34.50
3660;DHT22;1846;51.482;7.224;2023-06-22T02:23:07;22.30;34.00
3660;DHT22;1846;51.482;7.224;2023-06-22T02:25:35;22.30;33.50
3660;DHT22;1846;51.482;7.224;2023-06-22T02:28:02;22.30;30.70
3660;DHT22;1846;51.482;7.224;2023-06-22T02:30:29;22.30;34.30
3660;DHT22;1846;51.482;7.224;2023-06-22T02:32:56;22.30;36.70
3660;DHT22;1846;51.482;7.224;2023-06-22T02:35:25;22.20;38.30
3660;DHT22;1846;51.482;7.224;2023-06-22T02:37:53;22.20;38.80
3660;DHT22;1846;51.482;7.224;2023-06-22T02:40:20;22.20;39.70
3660;DHT22;1846;51.482;7.224;2023-06-22T02:42:47;22.30;39.40
3660;DHT22;1846;51.482;7.224;2023-06-22T02:45:14;22.20;39.60
3660;DHT22;1846;51.482;7.224;2023-06-22T02:47:41;22.30;42.20
3660;DHT22;1846;51.482;7.224;2023-06-22T02:50:08;22.30;38.70
3660;DHT22;1846;51.482;7.224;2023-06-22T02:52:35;22.30;42.70
3660;DHT22;1846;51.482;7.224;2023-06-22T02:55:04;22.30;42.30
3660;DHT22;1846;51.482;7.224;2023-06-22T02:57:32;22.30;43.10
3660;DHT22;1846;51.482;7.224;2023-06-22T02:59:59;22.30;42.40
3660;DHT22;1846;51.482;7.224;2023-06-22T03:02:26;22.30;46.80
3660;DHT22;1846;51.482;7.224;2023-06-22T03:04:53;22.20;45.60
3660;DHT22;1846;51.482;7.224;2023-06-22T03:07:20;22.30;44.40
3660;DHT22;1846;51.482;7.224;2023-06-22T03:09:47;22.20;49.00
3660;DHT22;1846;51.482;7.224;2023-06-22T03:12:15;22.10;58.30
3660;DHT22;1846;51.482;7.224;2023-06-22T03:14:42;22.10;57.30
3660;DHT22;1846;51.482;7.224;2023-06-22T03:17:10;22.20;53.50
3660;DHT22;1846;51.482;7.224;2023-06-22T03:19:37;22.20;53.40
3660;DHT22;1846;51.482;7.224;2023-06-22T03:22:04;22.20;53.70
3660;DHT22;1846;51.482;7.224;2023-06-22T03:24:30;22.10;54.90
3660;DHT22;1846;51.482;7.224;2023-06-22T03:26:57;22.10;65.40
3660;DHT22;1846;51.482;7.224;2023-06-22T03:29:25;22.00;76.60
3660;DHT22;1846;51.482;7.224;2023-06-22T03:31:52;22.00;80.30
3660;DHT22;1846;51.482;7.224;2023-06-22T03:34:19;22.00;84.90
3660;DHT22;1846;51.482;7.224;2023-06-22T03:36:46;21.90;90.50
3660;DHT22;1846;51.482;7.224;2023-06-22T03:39:12;21.80;97.80
3660;DHT22;1846;51.482;7.224;2023-06-22T03:41:39;21.80;99.90
3660;DHT22;1846;51.482;7.224;2023-06-22T03:44:06;21.80;98.60
3660;DHT22;1846;51.482;7.224;2023-06-22T03:46:37;21.70;99.90
3660;DHT22;1846;51.482;7.224;2023-06-22T03:49:04;21.70;99.90
3660;DHT22;1846;51.482;7.224;2023-06-22T03:51:32;21.60;99.90
3660;DHT22;1846;51.482;7.224;2023-06-22T03:53:59;21.60;99.90
3660;DHT22;1846;51.482;7.224;2023-06-22T03:56:26;21.50;99.90
3660;DHT22;1846;51.482;7.224;2023-06-22T03:58:52;21.50;99.90
3660;DHT22;1846;51.482;7.224;2023-06-22T04:01:19;21.60;99.90
3660;DHT22;1846;51.482;7.224;2023-06-22T04:03:47;21.60;99.90
3660;DHT22;1846;51.482;7.224;2023-06-22T04:06:15;21.60;99.90
3660;DHT22;1846;51.482;7.224;2023-06-22T04:08:41;21.70;99.90
3660;DHT22;1846;51.482;7.224;2023-06-22T04:11:08;21.70;99.90
3660;DHT22;1846;51.482;7.224;2023-06-22T04:13:35;21.80;99.90
3660;DHT22;1846;51.482;7.224;2023-06-22T04:16:02;21.80;98.20
3660;DHT22;1846;51.482;7.224;2023-06-22T04:18:29;21.80;94.40
3660;DHT22;1846;51.482;7.224;2023-06-22T04:20:57;21.80;91.30
3660;DHT22;1846;51.482;7.224;2023-06-22T04:23:24;21.90;90.80
3660;DHT22;1846;51.482;7.224;2023-06-22T04:25:51;21.80;91.30
3660;DHT22;1846;51.482;7.224;2023-06-22T04:28:18;21.80;93.80
3660;DHT22;1846;51.482;7.224;2023-06-22T04:30:45;21.80;94.60
3660;DHT22;1846;51.482;7.224;2023-06-22T04:33:13;21.90;84.10
3660;DHT22;1846;51.482;7.224;2023-06-22T04:35:40;21.90;80.90
3660;DHT22;1846;51.482;7.224;2023-06-22T04:38:09;21.90;79.90
3660;DHT22;1846;51.482;7.224;2023-06-22T04:40:38;21.90;86.00
3660;DHT22;1846;51.482;7.224;2023-06-22T04:43:05;21.80;92.10
3660;DHT22;1846;51.482;7.224;2023-06-22T04:45:32;21.70;95.20
3660;DHT22;1846;51.482;7.224;2023-06-22T04:48:01;21.70;99.90
3660;DHT22;1846;51.482;7.224;2023-06-22T04:50:27;21.80;99.90
3660;DHT22;1846;51.482;7.224;2023-06-22T04:52:54;21.80;99.90
3660;DHT22;1846;51.482;7.224;2023-06-22T04:55:24;21.80;98.50
3660;DHT22;1846;51.482;7.224;2023-06-22T04:57:51;21.80;98.20
3660;DHT22;1846;51.482;7.224;2023-06-22T05:00:19;21.80;98.70
3660;DHT22;1846;51.482;7.224;2023-06-22T05:02:49;21.80;99.90
3660;DHT22;1846;51.482;7.224;2023-06-22T05:05:15;21.80;99.90
3660;DHT22;1846;51.482;7.224;2023-06-22T05:07:43;21.80;99.90
3660;DHT22;1846;51.482;7.224;2023-06-22T05:10:13;21.80;99.90
3660;DHT22;1846;51.482;7.224;2023-06-22T05:12:41;21.80;99.90
3660;DHT22;1846;51.482;7.224;2023-06-22T05:15:08;21.70;99.90
3660;DHT22;1846;51.482;7.224;2023-06-22T05:17:36;21.80;99.90
3660;DHT22;1846;51.482;7.224;2023-06-22T05:20:09;21.90;96.80
3660;DHT22;1846;51.482;7.224;2023-06-22T05:22:36;21.80;99.90
3660;DHT22;1846;51.482;7.224;2023-06-22T05:25:03;21.80;99.90
3660;DHT22;1846;51.482;7.224;2023-06-22T05:27:30;21.80;99.90
3660;DHT22;1846;51.482;7.224;2023-06-22T05:29:58;21.70;99.90
3660;DHT22;1846;51.482;7.224;2023-06-22T05:32:25;21.60;99.90
3660;DHT22;1846;51.482;7.224;2023-06-22T05:34:51;21.60;99.90
3660;DHT22;1846;51.482;7.224;2023-06-22T05:37:18;21.50;99.90
3660;DHT22;1846;51.482;7.224;2023-06-22T05:39:45;21.50;99.90
3660;DHT22;1846;51.482;7.224;2023-06-22T05:42:12;21.50;99.90
3660;DHT22;1846;51.482;7.224;2023-06-22T05:44:39;21.50;99.90
3660;DHT22;1846;51.482;7.224;2023-06-22T05:47:07;21.50;99.90
3660;DHT22;1846;51.482;7.224;2023-06-22T05:49:34;21.60;99.90
3660;DHT22;1846;51.482;7.224;2023-06-22T05:52:01;21.60;99.90
3660;DHT22;1846;51.482;7.224;2023-06-22T05:54:28;21.70;99.90
3660;DHT22;1846;51.482;7.224;2023-06-22T05:56:55;21.80;99.90
3660;DHT22;1846;51.482;7.224;2023-06-22T05:59:22;21.90;99.90
3660;DHT22;1846;51.482;7.224;2023-06-22T06:01:48;22.00;99.90
3660;DHT22;1846;51.482;7.224;2023-06-22T06:04:18;22.00;99.90
3660;DHT22;1846;51.482;7.224;2023-06-22T06:06:45;22.10;99.90
3660;DHT22;1846;51.482;7.224;2023-06-22T06:09:13;22.20;99.90
3660;DHT22;1846;51.482;7.224;2023-06-22T06:11:40;22.20;99.90
3660;DHT22;1846;51.482;7.224;2023-06-22T06:14:07;22.30;99.90
3660;DHT22;1846;51.482;7.224;2023-06-22T06:16:34;22.40;94.40
3660;DHT22;1846;51.482;7.224;2023-06-22T06:19:01;22.40;90.90
3660;DHT22;1846;51.482;7.224;2023-06-22T06:21:29;22.40;83.10
3660;DHT22;1846;51.482;7.224;2023-06-22T06:23:56;22.40;90.70
3660;DHT22;1846;51.482;7.224;2023-06-22T06:26:22;22.40;69.60
3660;DHT22;1846;51.482;7.224;2023-06-22T06:28:53;22.60;63.60
3660;DHT22;1846;51.482;7.224;2023-06-22T06:31:20;22.50;58.70
3660;DHT22;1846;51.482;7.224;2023-06-22T06:33:48;22.50;59.30
3660;DHT22;1846;51.482;7.224;2023-06-22T06:36:15;22.60;60.10
3660;DHT22;1846;51.482;7.224;2023-06-22T06:38:43;22.60;63.20
3660;DHT22;1846;51.482;7.224;2023-06-22T06:41:12;22.70;65.90
3660;DHT22;1846;51.482;7.224;2023-06-22T06:43:39;22.80;68.90
3660;DHT22;1846;51.482;7.224;2023-06-22T06:46:07;22.80;62.70
3660;DHT22;1846;51.482;7.224;2023-06-22T06:48:34;22.90;58.60
3660;DHT22;1846;51.482;7.224;2023-06-22T06:51:01;22.90;64.80
3660;DHT22;1846;51.482;7.224;2023-06-22T06:53:28;23.00;62.10
3660;DHT22;1846;51.482;7.224;2023-06-22T06:55:56;23.10;52.10
3660;DHT22;1846;51.482;7.224;2023-06-22T06:58:23;23.30;51.90
3660;DHT22;1846;51.482;7.224;2023-06-22T07:00:50;23.40;46.00
3660;DHT22;1846;51.482;7.224;2023-06-22T07:03:17;23.50;38.20
3660;DHT22;1846;51.482;7.224;2023-06-22T07:05:44;23.50;35.90
3660;DHT22;1846;51.482;7.224;2023-06-22T07:08:10;23.40;36.50
3660;DHT22;1846;51.482;7.224;2023-06-22T07:10:37;23.40;45.10
3660;DHT22;1846;51.482;7.224;2023-06-22T07:13:05;23.40;35.10
3660;DHT22;1846;51.482;7.224;2023-06-22T07:15:32;23.40;33.00
3660;DHT22;1846;51.482;7.224;2023-06-22T07:17:59;23.50;31.10
3660;DHT22;1846;51.482;7.224;2023-06-22T07:20:26;23.60;31.10
3660;DHT22;1846;51.482;7.224;2023-06-22T07:22:53;23.60;31.40
3660;DHT22;1846;51.482;7.224;2023-06-22T07:25:20;23.60;30.80
3660;DHT22;1846;51.482;7.224;2023-06-22T07:27:57;23.50;31.70
3660;DHT22;1846;51.482;7.224;2023-06-22T07:30:26;23.50;34.20
3660;DHT22;1846;51.482;7.224;2023-06-22T07:32:52;23.50;36.10
3660;DHT22;1846;51.482;7.224;2023-06-22T07:35:19;23.60;39.20
3660;DHT22;1846;51.482;7.224;2023-06-22T07:37:46;23.60;43.00
3660;DHT22;1846;51.482;7.224;2023-06-22T07:40:13;23.50;50.20
3660;DHT22;1846;51.482;7.224;2023-06-22T07:42:40;23.40;70.10
3660;DHT22;1846;51.482;7.224;2023-06-22T07:45:08;23.40;80.10
3660;DHT22;1846;51.482;7.224;2023-06-22T07:47:36;23.20;99.90
3660;DHT22;1846;51.482;7.224;2023-06-22T07:50:03;23.00;99.90
3660;DHT22;1846;51.482;7.224;2023-06-22T07:52:31;22.70;99.90
3660;DHT22;1846;51.482;7.224;2023-06-22T07:54:58;22.50;99.90
3660;DHT22;1846;51.482;7.224;2023-06-22T07:57:25;22.40;1.00
3660;DHT22;1846;51.482;7.224;2023-06-22T07:59:57;22.40;8.10
3660;DHT22;1846;51.482;7.224;2023-06-22T08:02:25;22.30;54.50
3660;DHT22;1846;51.482;7.224;2023-06-22T08:04:53;22.20;99.90
3660;DHT22;1846;51.482;7.224;2023-06-22T08:07:20;22.20;99.90
3660;DHT22;1846;51.482;7.224;2023-06-22T08:09:47;22.00;99.90
3660;DHT22;1846;51.482;7.224;2023-06-22T08:12:15;21.90;1.00
3660;DHT22;1846;51.482;7.224;2023-06-22T08:14:43;21.80;1.00
3660;DHT22;1846;51.482;7.224;2023-06-22T08:17:11;21.80;1.00
3660;DHT22;1846;51.482;7.224;2023-06-22T08:19:39;21.80;49.00
3660;DHT22;1846;51.482;7.224;2023-06-22T08:22:08;21.80;99.90
3660;DHT22;1846;51.482;7.224;2023-06-22T08:24:35;21.80;1.00
3660;DHT22;1846;51.482;7.224;2023-06-22T08:27:03;21.90;74.50
3660;DHT22;1846;51.482;7.224;2023-06-22T08:29:30;21.90;10.50
3660;DHT22;1846;51.482;7.224;2023-06-22T08:31:57;22.10;1.00
3660;DHT22;1846;51.482;7.224;2023-06-22T08:34:24;22.10;1.00
3660;DHT22;1846;51.482;7.224;2023-06-22T08:36:53;22.30;1.00
3660;DHT22;1846;51.482;7.224;2023-06-22T08:39:22;22.40;1.00
3660;DHT22;1846;51.482;7.224;2023-06-22T08:41:49;22.60;99.90
3660;DHT22;1846;51.482;7.224;2023-06-22T08:44:18;22.70;99.90
3660;DHT22;1846;51.482;7.224;2023-06-22T08:46:46;22.80;16.60
3660;DHT22;1846;51.482;7.224;2023-06-22T08:49:13;23.00;1.00
3660;DHT22;1846;51.482;7.224;2023-06-22T08:51:41;23.00;1.00
3660;DHT22;1846;51.482;7.224;2023-06-22T08:54:10;23.10;1.00
3660;DHT22;1846;51.482;7.224;2023-06-22T08:56:38;23.30;1.00
3660;DHT22;1846;51.482;7.224;2023-06-22T08:59:06;23.30;1.00
3660;DHT22;1846;51.482;7.224;2023-06-22T09:01:33;23.40;99.90
3660;DHT22;1846;51.482;7.224;2023-06-22T09:04:00;23.40;99.90
3660;DHT22;1846;51.482;7.224;2023-06-22T09:06:29;23.40;99.90
3660;DHT22;1846;51.482;7.224;2023-06-22T09:08:57;23.50;99.90
3660;DHT22;1846;51.482;7.224;2023-06-22T09:11:25;23.60;99.90
3660;DHT22;1846;51.482;7.224;2023-06-22T09:13:54;23.60;99.90
3660;DHT22;1846;51.482;7.224;2023-06-22T09:16:21;23.70;99.90
3660;DHT22;1846;51.482;7.224;2023-06-22T09:18:48;23.80;99.90
3660;DHT22;1846;51.482;7.224;2023-06-22T09:21:15;23.90;99.90
3660;DHT22;1846;51.482;7.224;2023-06-22T09:23:42;24.00;99.90
3660;DHT22;1846;51.482;7.224;2023-06-22T09:26:11;24.10;99.90
3660;DHT22;1846;51.482;7.224;2023-06-22T09:28:38;24.40;99.90
3660;DHT22;1846;51.482;7.224;2023-06-22T09:31:06;24.60;99.90
3660;DHT22;1846;51.482;7.224;2023-06-22T09:33:33;25.00;99.90
3660;DHT22;1846;51.482;7.224;2023-06-22T09:35:59;25.10;99.90
3660;DHT22;1846;51.482;7.224;2023-06-22T09:38:26;25.20;99.90
3660;DHT22;1846;51.482;7.224;2023-06-22T09:40:53;25.40;99.90
3660;DHT22;1846;51.482;7.224;2023-06-22T09:43:20;25.50;99.90
3660;DHT22;1846;51.482;7.224;2023-06-22T09:45:47;25.60;99.90
3660;DHT22;1846;51.482;7.224;2023-06-22T09:48:15;25.90;99.90
3660;DHT22;1846;51.482;7.224;2023-06-22T09:50:42;26.00;99.90
3660;DHT22;1846;51.482;7.224;2023-06-22T09:53:09;26.10;99.90
3660;DHT22;1846;51.482;7.224;2023-06-22T09:55:36;26.40;99.90
3660;DHT22;1846;51.482;7.224;2023-06-22T09:58:03;26.80;95.50
3660;DHT22;1846;51.482;7.224;2023-06-22T10:00:30;26.90;82.10
3660;DHT22;1846;51.482;7.224;2023-06-22T10:02:57;27.20;70.40
3660;DHT22;1846;51.482;7.224;2023-06-22T10:05:25;27.30;66.40
3660;DHT22;1846;51.482;7.224;2023-06-22T10:07:52;27.30;66.30
3660;DHT22;1846;51.482;7.224;2023-06-22T10:10:19;27.30;59.60
3660;DHT22;1846;51.482;7.224;2023-06-22T10:12:47;27.30;55.40
3660;DHT22;1846;51.482;7.224;2023-06-22T10:15:14;27.20;55.50
3660;DHT22;1846;51.482;7.224;2023-06-22T10:17:41;27.30;46.50
3660;DHT22;1846;51.482;7.224;2023-06-22T10:20:09;27.20;45.00
3660;DHT22;1846;51.482;7.224;2023-06-22T10:22:40;27.30;47.60
3660;DHT22;1846;51.482;7.224;2023-06-22T10:25:11;27.30;41.80
3660;DHT22;1846;51.482;7.224;2023-06-22T10:27:38;27.50;40.70
3660;DHT22;1846;51.482;7.224;2023-06-22T10:30:07;27.70;36.90
3660;DHT22;1846;51.482;7.224;2023-06-22T10:32:34;27.80;37.10
3660;DHT22;1846;51.482;7.224;2023-06-22T10:35:02;28.00;32.80
3660;DHT22;1846;51.482;7.224;2023-06-22T10:37:29;28.10;28.50
3660;DHT22;1846;51.482;7.224;2023-06-22T10:39:57;28.20;27.60
3660;DHT22;1846;51.482;7.224;2023-06-22T10:42:24;28.20;26.70
3660;DHT22;1846;51.482;7.224;2023-06-22T10:44:51;28.30;26.70
3660;DHT22;1846;51.482;7.224;2023-06-22T10:47:18;28.20;26.20
3660;DHT22;1846;51.482;7.224;2023-06-22T10:49:47;28.20;27.10
3660;DHT22;1846;51.482;7.224;2023-06-22T10:52:35;28.30;26.00
3660;DHT22;1846;51.482;7.224;2023-06-22T10:55:03;28.50;25.90
3660;DHT22;1846;51.482;7.224;2023-06-22T10:57:30;28.50;26.40
3660;DHT22;1846;51.482;7.224;2023-06-22T10:59:57;28.40;25.40
3660;DHT22;1846;51.482;7.224;2023-06-22T11:02:27;28.40;24.80
3660;DHT22;1846;51.482;7.224;2023-06-22T11:04:54;28.30;24.50
3660;DHT22;1846;51.482;7.224;2023-06-22T11:07:21;28.20;24.30
3660;DHT22;1846;51.482;7.224;2023-06-22T11:09:48;28.10;23.70
3660;DHT22;1846;51.482;7.224;2023-06-22T11:12:16;28.10;24.30
3660;DHT22;1846;51.482;7.224;2023-06-22T11:14:43;28.00;24.60
3660;DHT22;1846;51.482;7.224;2023-06-22T11:17:10;27.90;23.70
3660;DHT22;1846;51.482;7.224;2023-06-22T11:19:37;27.70;24.50
3660;DHT22;1846;51.482;7.224;2023-06-22T11:22:05;27.50;30.00
3660;DHT22;1846;51.482;7.224;2023-06-22T11:24:32;27.30;42.50
3660;DHT22;1846;51.482;7.224;2023-06-22T11:26:59;26.80;94.10
3660;DHT22;1846;51.482;7.224;2023-06-22T11:29:27;26.40;99.90
3660;DHT22;1846;51.482;7.224;2023-06-22T11:31:55;25.90;99.90
3660;DHT22;1846;51.482;7.224;2023-06-22T11:34:22;25.40;99.90
3660;DHT22;1846;51.482;7.224;2023-06-22T11:36:50;25.00;1.00
3660;DHT22;1846;51.482;7.224;2023-06-22T11:39:17;24.80;21.80
3660;DHT22;1846;51.482;7.224;2023-06-22T11:41:44;24.60;1.00
3660;DHT22;1846;51.482;7.224;2023-06-22T11:44:11;24.40;99.90
3660;DHT22;1846;51.482;7.224;2023-06-22T11:46:40;24.20;1.00
3660;DHT22;1846;51.482;7.224;2023-06-22T11:49:07;24.20;1.00
3660;DHT22;1846;51.482;7.224;2023-06-22T11:51:34;24.10;99.90
3660;DHT22;1846;51.482;7.224;2023-06-22T11:54:02;23.90;99.90
3660;DHT22;1846;51.482;7.224;2023-06-22T11:56:29;23.70;99.90
3660;DHT22;1846;51.482;7.224;2023-06-22T12:01:32;23.30;1.00
3660;DHT22;1846;51.482;7.224;2023-06-22T12:04:01;23.20;1.00
3660;DHT22;1846;51.482;7.224;2023-06-22T12:06:31;23.00;1.00
3660;DHT22;1846;51.482;7.224;2023-06-22T12:08:58;22.90;1.00
3660;DHT22;1846;51.482;7.224;2023-06-22T12:11:25;22.90;1.00
3660;DHT22;1846;51.482;7.224;2023-06-22T12:13:52;22.80;1.00
3660;DHT22;1846;51.482;7.224;2023-06-22T12:18:54;22.60;29.90
3660;DHT22;1846;51.482;7.224;2023-06-22T12:21:23;22.50;52.70
3660;DHT22;1846;51.482;7.224;2023-06-22T12:23:50;22.40;71.10
3660;DHT22;1846;51.482;7.224;2023-06-22T12:26:17;22.40;87.40
3660;DHT22;1846;51.482;7.224;2023-06-22T12:28:44;22.30;96.20
3660;DHT22;1846;51.482;7.224;2023-06-22T12:31:11;22.30;99.90
3660;DHT22;1846;51.482;7.224;2023-06-22T12:36:26;22.30;99.90
3660;DHT22;1846;51.482;7.224;2023-06-22T12:38:53;22.20;99.90
3660;DHT22;1846;51.482;7.224;2023-06-22T12:41:21;22.10;99.90
3660;DHT22;1846;51.482;7.224;2023-06-22T12:43:48;22.10;99.90
3660;DHT22;1846;51.482;7.224;2023-06-22T12:46:15;22.10;99.90
3660;DHT22;1846;51.482;7.224;2023-06-22T12:49:14;22.10;99.90
3660;DHT22;1846;51.482;7.224;2023-06-22T12:51:44;22.10;99.90
3660;DHT22;1846;51.482;7.224;2023-06-22T12:57:12;22.00;99.90
3660;DHT22;1846;51.482;7.224;2023-06-22T12:59:39;22.00;99.90
3660;DHT22;1846;51.482;7.224;2023-06-22T13:02:06;21.90;99.90
3660;DHT22;1846;51.482;7.224;2023-06-22T13:04:33;21.90;99.90
3660;DHT22;1846;51.482;7.224;2023-06-22T13:07:01;21.90;99.90
3660;DHT22;1846;51.482;7.224;2023-06-22T13:09:28;21.90;99.90
3660;DHT22;1846;51.482;7.224;2023-06-22T13:11:55;21.90;99.90
3660;DHT22;1846;51.482;7.224;2023-06-22T13:14:21;22.00;99.90
3660;DHT22;1846;51.482;7.224;2023-06-22T13:16:49;22.00;99.90
3660;DHT22;1846;51.482;7.224;2023-06-22T13:19:16;22.00;99.90
3660;DHT22;1846;51.482;7.224;2023-06-22T13:21:43;22.10;99.90
3660;DHT22;1846;51.482;7.224;2023-06-22T13:24:11;22.20;99.90
3660;DHT22;1846;51.482;7.224;2023-06-22T13:26:38;22.30;99.90
3660;DHT22;1846;51.482;7.224;2023-06-22T13:29:05;22.40;99.90
3660;DHT22;1846;51.482;7.224;2023-06-22T13:31:32;22.50;99.90
3660;DHT22;1846;51.482;7.224;2023-06-22T13:33:58;22.50;99.90
3660;DHT22;1846;51.482;7.224;2023-06-22T13:36:25;22.50;99.90
3660;DHT22;1846;51.482;7.224;2023-06-22T13:38:55;22.50;88.10
3660;DHT22;1846;51.482;7.224;2023-06-22T13:41:23;22.60;62.10
3660;DHT22;1846;51.482;7.224;2023-06-22T13:43:50;22.60;60.00
3660;DHT22;1846;51.482;7.224;2023-06-22T13:46:16;22.60;45.00
3660;DHT22;1846;51.482;7.224;2023-06-22T13:48:43;22.70;27.60
3660;DHT22;1846;51.482;7.224;2023-06-22T13:51:10;22.60;6.30
3660;DHT22;1846;51.482;7.224;2023-06-22T13:53:37;22.70;1.50
3660;DHT22;1846;51.482;7.224;2023-06-22T13:56:04;22.70;4.50
3660;DHT22;1846;51.482;7.224;2023-06-22T13:58:32;22.80;9.90
3660;DHT22;1846;51.482;7.224;2023-06-22T14:00:59;22.90;7.30
3660;DHT22;1846;51.482;7.224;2023-06-22T14:03:26;23.00;1.00
3660;DHT22;1846;51.482;7.224;2023-06-22T14:05:52;23.10;1.00
3660;DHT22;1846;51.482;7.224;2023-06-22T14:08:21;23.30;1.00
3660;DHT22;1846;51.482;7.224;2023-06-22T14:10:49;23.30;1.00
3660;DHT22;1846;51.482;7.224;2023-06-22T14:13:16;23.40;99.90
3660;DHT22;1846;51.482;7.224;2023-06-22T14:15:44;23.40;1.00
3660;DHT22;1846;51.482;7.224;2023-06-22T14:18:13;23.40;99.90
3660;DHT22;1846;51.482;7.224;2023-06-22T14:20:40;23.40;99.90
3660;DHT22;1846;51.482;7.224;2023-06-22T14:23:07;23.30;1.00
3660;DHT22;1846;51.482;7.224;2023-06-22T14:25:34;23.20;1.00
3660;DHT22;1846;51.482;7.224;2023-06-22T14:28:01;23.30;99.90
3660;DHT22;1846;51.482;7.224;2023-06-22T14:30:28;23.30;99.90
3660;DHT22;1846;51.482;7.224;2023-06-22T14:32:56;23.30;99.90
3660;DHT22;1846;51.482;7.224;2023-06-22T14:35:23;23.20;1.00
3660;DHT22;1846;51.482;7.224;2023-06-22T14:37:49;23.20;75.50
3660;DHT22;1846;51.482;7.224;2023-06-22T14:40:16;23.30;1.00
3660;DHT22;1846;51.482;7.224;2023-06-22T14:42:43;23.30;1.00
3660;DHT22;1846;51.482;7.224;2023-06-22T14:45:10;23.30;99.90
3660;DHT22;1846;51.482;7.224;2023-06-22T14:47:37;23.30;99.90
3660;DHT22;1846;51.482;7.224;2023-06-22T14:50:07;23.30;99.90
3660;DHT22;1846;51.482;7.224;2023-06-22T14:52:34;23.20;42.60
3660;DHT22;1846;51.482;7.224;2023-06-22T14:55:01;23.20;99.90
3660;DHT22;1846;51.482;7.224;2023-06-22T14:57:27;23.10;34.50
3660;DHT22;1846;51.482;7.224;2023-06-22T14:59:54;23.00;30.00
3660;DHT22;1846;51.482;7.224;2023-06-22T15:02:21;22.90;99.90
3660;DHT22;1846;51.482;7.224;2023-06-22T15:04:48;22.90;99.90
3660;DHT22;1846;51.482;7.224;2023-06-22T15:07:17;23.00;1.00
3660;DHT22;1846;51.482;7.224;2023-06-22T15:09:45;23.10;99.90
3660;DHT22;1846;51.482;7.224;2023-06-22T15:12:12;23.20;1.00
3660;DHT22;1846;51.482;7.224;2023-06-22T15:14:39;23.20;1.00
3660;DHT22;1846;51.482;7.224;2023-06-22T15:17:07;23.10;23.70
3660;DHT22;1846;51.482;7.224;2023-06-22T15:19:35;23.00;1.00
3660;DHT22;1846;51.482;7.224;2023-06-22T15:22:03;23.00;1.00
3660;DHT22;1846;51.482;7.224;2023-06-22T15:24:32;22.80;1.00
3660;DHT22;1846;51.482;7.224;2023-06-22T15:27:00;22.70;99.90
3660;DHT22;1846;51.482;7.224;2023-06-22T15:29:27;22.70;1.00
3660;DHT22;1846;51.482;7.224;2023-06-22T15:31:59;22.70;1.00
3660;DHT22;1846;51.482;7.224;2023-06-22T15:34:26;22.60;1.00
3660;DHT22;1846;51.482;7.224;2023-06-22T15:36:52;22.60;1.00
3660;DHT22;1846;51.482;7.224;2023-06-22T15:39:19;22.50;99.90
3660;DHT22;1846;51.482;7.224;2023-06-22T15:41:50;22.50;99.90
3660;DHT22;1846;51.482;7.224;2023-06-22T15:44:19;22.40;1.00
3660;DHT22;1846;51.482;7.224;2023-06-22T15:46:46;22.40;1.00
3660;DHT22;1846;51.482;7.224;2023-06-22T15:49:14;22.60;1.00
3660;DHT22;1846;51.482;7.224;2023-06-22T15:51:41;22.60;1.00
3660;DHT22;1846;51.482;7.224;2023-06-22T15:54:07;22.60;1.00
3660;DHT22;1846;51.482;7.224;2023-06-22T15:56:34;22.60;1.00
3660;DHT22;1846;51.482;7.224;2023-06-22T15:59:02;22.60;1.00
3660;DHT22;1846;51.482;7.224;2023-06-22T16:01:29;22.60;1.00
3660;DHT22;1846;51.482;7.224;2023-06-22T16:03:56;22.40;26.40
3660;DHT22;1846;51.482;7.224;2023-06-22T16:06:23;22.30;99.90
3660;DHT22;1846;51.482;7.224;2023-06-22T16:08:50;22.20;99.90
3660;DHT22;1846;51.482;7.224;2023-06-22T16:11:16;22.20;1.00
3660;DHT22;1846;51.482;7.224;2023-06-22T16:13:43;22.00;1.00
3660;DHT22;1846;51.482;7.224;2023-06-22T16:16:12;21.90;1.00
3660;DHT22;1846;51.482;7.224;2023-06-22T16:18:41;21.80;1.00